Habib Express — 5IM379 — position and weather

sailwx.info

Track history (hours):
 
Tides and Currents Weather Stations Pressure Air Temp Water Temp Dewpoint Dewpoint Depression Visibility Wind Speed Wind Dir Waves Ship Positions

Habib Express

Last reported at 2017-Nov-19 19:56 UTC. Time now 2017-Nov-21 23:13 UTC.
Position N 25°24' W 079°54'.

Length 90 m; draft 4.5 m.

Type: Cargo ship. MMSI: 677027900.

Date/timePositionNaut miles runAvg speedWind from/ knotsBaromVisibWave heightAir tempDewpointWater temp
2017-Nov-19 19:56N 25°24' W 079°54'3 8.1
2017-Nov-19 19:31N 25°28' W 079°55'4 8.5
2017-Nov-19 19:01N 25°32' W 079°57'4 8.5
2017-Nov-19 18:30N 25°36' W 079°58'4 8.8
2017-Nov-19 18:01N 25°39' W 080°01'4 9.0
2017-Nov-19 17:31N 25°43' W 080°03'4 7.8
2017-Nov-19 17:01N 25°46' W 080°06'4 7.9
2017-Nov-19 16:31N 25°46' W 080°11'1 2.2
2017-Nov-19 16:00N 25°46' W 080°12'1 2.8
2017-Nov-19 15:31N 25°47' W 080°13'1 2.7
2017-Nov-19 15:01N 25°48' W 080°14'0 0.8
2017-Nov-19 14:30N 25°48' W 080°15'0 0.0
2017-Nov-19 14:00N 25°48' W 080°15'0 0.0
2017-Nov-19 13:31N 25°48' W 080°15'0 0.0
2017-Nov-19 13:01N 25°48' W 080°15'0 0.0
2017-Nov-19 12:31N 25°48' W 080°15'0 0.0
2017-Nov-19 12:00N 25°48' W 080°15'0 0.0
2017-Nov-19 11:31N 25°48' W 080°15'0 0.0
2017-Nov-19 11:01N 25°48' W 080°15'0 0.0
2017-Nov-19 10:30N 25°48' W 080°15'0 0.0
2017-Nov-19 10:00N 25°48' W 080°15'0 0.0
2017-Nov-19 09:31N 25°48' W 080°15'0 0.0
2017-Nov-19 09:01N 25°48' W 080°15'0 0.0
2017-Nov-19 08:31N 25°48' W 080°15'0 0.0
2017-Nov-19 08:01N 25°48' W 080°15'0 0.0
2017-Nov-19 07:31N 25°48' W 080°15'0 0.0
2017-Nov-19 07:01N 25°48' W 080°15'0 0.0
2017-Nov-19 06:31N 25°48' W 080°15'0 0.0
2017-Nov-19 06:01N 25°48' W 080°15'0 0.0
2017-Nov-19 05:31N 25°48' W 080°15'0 0.0
2017-Nov-19 05:00N 25°48' W 080°15'0 0.0
2017-Nov-19 04:31N 25°48' W 080°15'0 0.0
2017-Nov-19 04:01N 25°48' W 080°15'0 0.0
2017-Nov-19 03:31N 25°48' W 080°15'0 0.0
2017-Nov-19 03:01N 25°48' W 080°15'0 0.0
2017-Nov-19 02:31N 25°48' W 080°15'0 0.0
2017-Nov-19 02:01N 25°48' W 080°15'0 0.0
2017-Nov-19 01:31N 25°48' W 080°15'0 0.0
2017-Nov-19 01:01N 25°48' W 080°15'0 0.0
2017-Nov-19 00:31N 25°48' W 080°15'0 0.0
2017-Nov-19 00:00N 25°48' W 080°15'0 0.0
2017-Nov-18 23:31N 25°48' W 080°15'0 0.0
2017-Nov-18 23:00N 25°48' W 080°15'0 1.0
2017-Nov-18 22:30N 25°48' W 080°14'1 2.8
2017-Nov-18 22:01N 25°47' W 080°13'1 2.5
2017-Nov-18 21:31N 25°46' W 080°12'1 2.5
2017-Nov-18 21:00N 25°46' W 080°11'4 8.0
2017-Nov-18 20:30N 25°46' W 080°06'2 4.2
2017-Nov-18 20:01N 25°45' W 080°04'2 4.6
2017-Nov-18 19:30N 25°42' W 080°04'1 1.4
2017-Nov-18 18:57N 25°42' W 080°03'1 1.7
2017-Nov-18 18:30N 25°41' W 080°03'2 4.8
2017-Nov-18 18:00N 25°39' W 080°02'5 9.1
2017-Nov-18 17:30N 25°35' W 079°60'5 9.2
2017-Nov-18 17:00N 25°31' W 079°58'6 9.2
2017-Nov-18 16:22N 25°25' W 079°55'  
2017-Nov-12 15:45N 25°20' W 079°55'2 7.4
2017-Nov-12 15:26N 25°22' W 079°56'3 7.4
2017-Nov-12 15:00N 25°25' W 079°57'4 7.3
2017-Nov-12 14:30N 25°29' W 079°58'4 7.4
2017-Nov-12 14:00N 25°32' W 079°59'4 7.8
2017-Nov-12 13:30N 25°36' W 080°00'4 8.7
2017-Nov-12 13:00N 25°40' W 080°02'510.3
2017-Nov-12 12:30N 25°45' W 080°04'4 8.7
2017-Nov-12 12:00N 25°46' W 080°09'2 4.3
2017-Nov-12 11:30N 25°46' W 080°11'1 2.0
2017-Nov-12 11:00N 25°46' W 080°12'1 2.6
2017-Nov-12 10:30N 25°47' W 080°13'1 2.5
2017-Nov-12 10:00N 25°48' W 080°14'0 0.7
2017-Nov-12 09:30N 25°48' W 080°15'0 0.0
2017-Nov-12 09:00N 25°48' W 080°15'0 0.0
2017-Nov-12 08:30N 25°48' W 080°15'0 0.0
2017-Nov-12 08:00N 25°48' W 080°15'0 0.0
2017-Nov-12 07:30N 25°48' W 080°15'0 0.0
2017-Nov-12 07:00N 25°48' W 080°15'0 0.0
2017-Nov-12 06:30N 25°48' W 080°15'0 0.0
2017-Nov-12 06:00N 25°48' W 080°15'0 0.0
2017-Nov-12 05:30N 25°48' W 080°15'0 0.0
2017-Nov-12 05:00N 25°48' W 080°15'0 0.0
2017-Nov-12 04:30N 25°48' W 080°15'0 0.0
2017-Nov-12 04:00N 25°48' W 080°15'0 0.0
2017-Nov-12 03:30N 25°48' W 080°15'0 0.0
2017-Nov-12 03:00N 25°48' W 080°15'0 0.0
2017-Nov-12 02:30N 25°48' W 080°15'0 0.0
2017-Nov-12 02:00N 25°48' W 080°15'0 0.0
2017-Nov-12 01:30N 25°48' W 080°15'0 0.0
2017-Nov-12 01:00N 25°48' W 080°15'0 0.0
2017-Nov-12 00:30N 25°48' W 080°15'0 0.0
2017-Nov-12 00:00N 25°48' W 080°15'0 0.0
2017-Nov-11 23:30N 25°48' W 080°15'0 0.0
2017-Nov-11 23:00N 25°48' W 080°15'0 0.0
2017-Nov-11 22:30N 25°48' W 080°15'0 0.0
2017-Nov-11 22:00N 25°48' W 080°15'0 0.0
2017-Nov-11 21:30N 25°48' W 080°15'0 0.0
2017-Nov-11 21:00N 25°48' W 080°15'0 0.0
2017-Nov-11 20:30N 25°48' W 080°15'0 0.0
2017-Nov-11 20:00N 25°48' W 080°15'0 0.0
2017-Nov-11 19:30N 25°48' W 080°15'0 0.0
2017-Nov-11 19:00N 25°48' W 080°15'0 0.0
2017-Nov-11 18:30N 25°48' W 080°15'0 0.0
2017-Nov-11 18:00N 25°48' W 080°15'0 0.0
2017-Nov-11 17:30N 25°48' W 080°15'0 0.0
2017-Nov-11 17:00N 25°48' W 080°15'0 0.0
2017-Nov-11 16:30N 25°48' W 080°15'0 0.0
2017-Nov-11 16:00N 25°48' W 080°15'0 0.0
2017-Nov-11 15:30N 25°48' W 080°15'0 0.0
2017-Nov-11 15:00N 25°48' W 080°15'0 0.0
2017-Nov-11 14:30N 25°48' W 080°15'0 0.0
2017-Nov-11 14:00N 25°48' W 080°15'0 0.1
2017-Nov-11 13:30N 25°48' W 080°15'0 0.0
2017-Nov-11 13:00N 25°48' W 080°15'0 0.0
2017-Nov-11 12:30N 25°48' W 080°15'0 0.0
2017-Nov-11 12:00N 25°48' W 080°15'0 0.0
2017-Nov-11 11:30N 25°48' W 080°15'0 0.0
2017-Nov-11 11:00N 25°48' W 080°15'0 0.0
2017-Nov-11 10:30N 25°48' W 080°15'0 0.0
2017-Nov-11 10:00N 25°48' W 080°15'0 0.0
2017-Nov-11 09:30N 25°48' W 080°15'0 0.0
2017-Nov-11 09:00N 25°48' W 080°15'0 0.0
2017-Nov-11 08:30N 25°48' W 080°15'0 0.0
2017-Nov-11 08:00N 25°48' W 080°15'0 0.0
2017-Nov-11 07:30N 25°48' W 080°15'0 0.0
2017-Nov-11 07:00N 25°48' W 080°15'0 0.0
2017-Nov-11 06:30N 25°48' W 080°15'0 0.0
2017-Nov-11 06:00N 25°48' W 080°15'0 0.0
2017-Nov-11 05:30N 25°48' W 080°15'1 1.1
2017-Nov-11 05:00N 25°47' W 080°14'1 2.8
2017-Nov-11 04:30N 25°47' W 080°13'1 2.2
2017-Nov-11 04:00N 25°46' W 080°12'1 2.7
2017-Nov-11 03:30N 25°46' W 080°10'4 8.2
2017-Nov-11 03:00N 25°46' W 080°06'4 8.8
2017-Nov-11 02:31N 25°43' W 080°02'0 0.8
2017-Nov-11 01:59N 25°43' W 080°02'0 0.8
2017-Nov-11 01:23N 25°42' W 080°02'0 0.7
2017-Nov-11 00:59N 25°42' W 080°02'3 5.2
2017-Nov-11 00:30N 25°40' W 080°03'1 2.4
2017-Nov-10 23:59N 25°39' W 080°02'1 2.1
2017-Nov-10 23:29N 25°38' W 080°02'1 2.2
2017-Nov-10 22:59N 25°37' W 080°01'2 4.0
2017-Nov-10 22:30N 25°35' W 079°60'612.3
2017-Nov-10 22:00N 25°30' W 079°57'712.7
2017-Nov-10 21:30N 25°24' W 079°54'712.9
2017-Nov-10 20:59N 25°18' W 079°52'  
Track history (hours):
 
Tides and Currents Weather Stations Pressure Air Temp Water Temp Dewpoint Dewpoint Depression Visibility Wind Speed Wind Dir Waves Ship Positions

Habib Express

Last reported at 2017-Nov-19 19:56 UTC. Time now 2017-Nov-21 23:13 UTC.
Position N 25°24' W 079°54'.

Length 90 m; draft 4.5 m.

Type: Cargo ship. MMSI: 677027900.

Date/timePositionNaut miles runAvg speedWind from/ knotsBaromVisibWave heightAir tempDewpointWater temp
2017-Nov-19 19:56N 25°24' W 079°54'3 8.1
2017-Nov-19 19:31N 25°28' W 079°55'4 8.5
2017-Nov-19 19:01N 25°32' W 079°57'4 8.5
2017-Nov-19 18:30N 25°36' W 079°58'4 8.8
2017-Nov-19 18:01N 25°39' W 080°01'4 9.0
2017-Nov-19 17:31N 25°43' W 080°03'4 7.8
2017-Nov-19 17:01N 25°46' W 080°06'4 7.9
2017-Nov-19 16:31N 25°46' W 080°11'1 2.2
2017-Nov-19 16:00N 25°46' W 080°12'1 2.8
2017-Nov-19 15:31N 25°47' W 080°13'1 2.7
2017-Nov-19 15:01N 25°48' W 080°14'0 0.8
2017-Nov-19 14:30N 25°48' W 080°15'0 0.0
2017-Nov-19 14:00N 25°48' W 080°15'0 0.0
2017-Nov-19 13:31N 25°48' W 080°15'0 0.0
2017-Nov-19 13:01N 25°48' W 080°15'0 0.0
2017-Nov-19 12:31N 25°48' W 080°15'0 0.0
2017-Nov-19 12:00N 25°48' W 080°15'0 0.0
2017-Nov-19 11:31N 25°48' W 080°15'0 0.0
2017-Nov-19 11:01N 25°48' W 080°15'0 0.0
2017-Nov-19 10:30N 25°48' W 080°15'0 0.0
2017-Nov-19 10:00N 25°48' W 080°15'0 0.0
2017-Nov-19 09:31N 25°48' W 080°15'0 0.0
2017-Nov-19 09:01N 25°48' W 080°15'0 0.0
2017-Nov-19 08:31N 25°48' W 080°15'0 0.0
2017-Nov-19 08:01N 25°48' W 080°15'0 0.0
2017-Nov-19 07:31N 25°48' W 080°15'0 0.0
2017-Nov-19 07:01N 25°48' W 080°15'0 0.0
2017-Nov-19 06:31N 25°48' W 080°15'0 0.0
2017-Nov-19 06:01N 25°48' W 080°15'0 0.0
2017-Nov-19 05:31N 25°48' W 080°15'0 0.0
2017-Nov-19 05:00N 25°48' W 080°15'0 0.0
2017-Nov-19 04:31N 25°48' W 080°15'0 0.0
2017-Nov-19 04:01N 25°48' W 080°15'0 0.0
2017-Nov-19 03:31N 25°48' W 080°15'0 0.0
2017-Nov-19 03:01N 25°48' W 080°15'0 0.0
2017-Nov-19 02:31N 25°48' W 080°15'0 0.0
2017-Nov-19 02:01N 25°48' W 080°15'0 0.0
2017-Nov-19 01:31N 25°48' W 080°15'0 0.0
2017-Nov-19 01:01N 25°48' W 080°15'0 0.0
2017-Nov-19 00:31N 25°48' W 080°15'0 0.0
2017-Nov-19 00:00N 25°48' W 080°15'0 0.0
2017-Nov-18 23:31N 25°48' W 080°15'0 0.0
2017-Nov-18 23:00N 25°48' W 080°15'0 1.0
2017-Nov-18 22:30N 25°48' W 080°14'1 2.8
2017-Nov-18 22:01N 25°47' W 080°13'1 2.5
2017-Nov-18 21:31N 25°46' W 080°12'1 2.5
2017-Nov-18 21:00N 25°46' W 080°11'4 8.0
2017-Nov-18 20:30N 25°46' W 080°06'2 4.2
2017-Nov-18 20:01N 25°45' W 080°04'2 4.6
2017-Nov-18 19:30N 25°42' W 080°04'1 1.4
2017-Nov-18 18:57N 25°42' W 080°03'1 1.7
2017-Nov-18 18:30N 25°41' W 080°03'2 4.8
2017-Nov-18 18:00N 25°39' W 080°02'5 9.1
2017-Nov-18 17:30N 25°35' W 079°60'5 9.2
2017-Nov-18 17:00N 25°31' W 079°58'6 9.2
2017-Nov-18 16:22N 25°25' W 079°55'  
2017-Nov-12 15:45N 25°20' W 079°55'2 7.4
2017-Nov-12 15:26N 25°22' W 079°56'3 7.4
2017-Nov-12 15:00N 25°25' W 079°57'4 7.3
2017-Nov-12 14:30N 25°29' W 079°58'4 7.4
2017-Nov-12 14:00N 25°32' W 079°59'4 7.8
2017-Nov-12 13:30N 25°36' W 080°00'4 8.7
2017-Nov-12 13:00N 25°40' W 080°02'510.3
2017-Nov-12 12:30N 25°45' W 080°04'4 8.7
2017-Nov-12 12:00N 25°46' W 080°09'2 4.3
2017-Nov-12 11:30N 25°46' W 080°11'1 2.0
2017-Nov-12 11:00N 25°46' W 080°12'1 2.6
2017-Nov-12 10:30N 25°47' W 080°13'1 2.5
2017-Nov-12 10:00N 25°48' W 080°14'0 0.7
2017-Nov-12 09:30N 25°48' W 080°15'0 0.0
2017-Nov-12 09:00N 25°48' W 080°15'0 0.0
2017-Nov-12 08:30N 25°48' W 080°15'0 0.0
2017-Nov-12 08:00N 25°48' W 080°15'0 0.0
2017-Nov-12 07:30N 25°48' W 080°15'0 0.0
2017-Nov-12 07:00N 25°48' W 080°15'0 0.0
2017-Nov-12 06:30N 25°48' W 080°15'0 0.0
2017-Nov-12 06:00N 25°48' W 080°15'0 0.0
2017-Nov-12 05:30N 25°48' W 080°15'0 0.0
2017-Nov-12 05:00N 25°48' W 080°15'0 0.0
2017-Nov-12 04:30N 25°48' W 080°15'0 0.0
2017-Nov-12 04:00N 25°48' W 080°15'0 0.0
2017-Nov-12 03:30N 25°48' W 080°15'0 0.0
2017-Nov-12 03:00N 25°48' W 080°15'0 0.0
2017-Nov-12 02:30N 25°48' W 080°15'0 0.0
2017-Nov-12 02:00N 25°48' W 080°15'0 0.0
2017-Nov-12 01:30N 25°48' W 080°15'0 0.0
2017-Nov-12 01:00N 25°48' W 080°15'0 0.0
2017-Nov-12 00:30N 25°48' W 080°15'0 0.0
2017-Nov-12 00:00N 25°48' W 080°15'0 0.0
2017-Nov-11 23:30N 25°48' W 080°15'0 0.0
2017-Nov-11 23:00N 25°48' W 080°15'0 0.0
2017-Nov-11 22:30N 25°48' W 080°15'0 0.0
2017-Nov-11 22:00N 25°48' W 080°15'0 0.0
2017-Nov-11 21:30N 25°48' W 080°15'0 0.0
2017-Nov-11 21:00N 25°48' W 080°15'0 0.0
2017-Nov-11 20:30N 25°48' W 080°15'0 0.0
2017-Nov-11 20:00N 25°48' W 080°15'0 0.0
2017-Nov-11 19:30N 25°48' W 080°15'0 0.0
2017-Nov-11 19:00N 25°48' W 080°15'0 0.0
2017-Nov-11 18:30N 25°48' W 080°15'0 0.0
2017-Nov-11 18:00N 25°48' W 080°15'0 0.0
2017-Nov-11 17:30N 25°48' W 080°15'0 0.0
2017-Nov-11 17:00N 25°48' W 080°15'0 0.0
2017-Nov-11 16:30N 25°48' W 080°15'0 0.0
2017-Nov-11 16:00N 25°48' W 080°15'0 0.0
2017-Nov-11 15:30N 25°48' W 080°15'0 0.0
2017-Nov-11 15:00N 25°48' W 080°15'0 0.0
2017-Nov-11 14:30N 25°48' W 080°15'0 0.0
2017-Nov-11 14:00N 25°48' W 080°15'0 0.1
2017-Nov-11 13:30N 25°48' W 080°15'0 0.0
2017-Nov-11 13:00N 25°48' W 080°15'0 0.0
2017-Nov-11 12:30N 25°48' W 080°15'0 0.0
2017-Nov-11 12:00N 25°48' W 080°15'0 0.0
2017-Nov-11 11:30N 25°48' W 080°15'0 0.0
2017-Nov-11 11:00N 25°48' W 080°15'0 0.0
2017-Nov-11 10:30N 25°48' W 080°15'0 0.0
2017-Nov-11 10:00N 25°48' W 080°15'0 0.0
2017-Nov-11 09:30N 25°48' W 080°15'0 0.0
2017-Nov-11 09:00N 25°48' W 080°15'0 0.0
2017-Nov-11 08:30N 25°48' W 080°15'0 0.0
2017-Nov-11 08:00N 25°48' W 080°15'0 0.0
2017-Nov-11 07:30N 25°48' W 080°15'0 0.0
2017-Nov-11 07:00N 25°48' W 080°15'0 0.0
2017-Nov-11 06:30N 25°48' W 080°15'0 0.0
2017-Nov-11 06:00N 25°48' W 080°15'0 0.0
2017-Nov-11 05:30N 25°48' W 080°15'1 1.1
2017-Nov-11 05:00N 25°47' W 080°14'1 2.8
2017-Nov-11 04:30N 25°47' W 080°13'1 2.2
2017-Nov-11 04:00N 25°46' W 080°12'1 2.7
2017-Nov-11 03:30N 25°46' W 080°10'4 8.2
2017-Nov-11 03:00N 25°46' W 080°06'4 8.8
2017-Nov-11 02:31N 25°43' W 080°02'0 0.8
2017-Nov-11 01:59N 25°43' W 080°02'0 0.8
2017-Nov-11 01:23N 25°42' W 080°02'0 0.7
2017-Nov-11 00:59N 25°42' W 080°02'3 5.2
2017-Nov-11 00:30N 25°40' W 080°03'1 2.4
2017-Nov-10 23:59N 25°39' W 080°02'1 2.1
2017-Nov-10 23:29N 25°38' W 080°02'1 2.2
2017-Nov-10 22:59N 25°37' W 080°01'2 4.0
2017-Nov-10 22:30N 25°35' W 079°60'612.3
2017-Nov-10 22:00N 25°30' W 079°57'712.7
2017-Nov-10 21:30N 25°24' W 079°54'712.9
2017-Nov-10 20:59N 25°18' W 079°52'  

Dump ship's entire track history